»·PEaware :: N4131B L35-KMMH

N4131B :: L35-KMMH

FLIGHT INFORMATION

Flight Status: Arrived
Operator: Privately registered:
United States
More flights under this callsign
Pilot: Christian B. (29430)
Aircraft: BEECH AIRCRAFT SUPER KING AIR 350
(B350)
More flights by this aircraft type
Origin: L35 Big Bear City
United States
Destination: KMMH Mammoth Yosemite
United States
More flights between these airports :: More routes between these airports
Route: +PMD EHF
File this flight plan on PilotEdge
Remarks:
Altitude:
(Current/Filed)
24,000ft
Speed:
(Current/Filed)
300kts
Departed: 22-May-20 06:22 PM
Arrived: 22-May-20 07:34 PM
Distance/Time
Traveled:
224nm/1:12
Distance/Time
To Go:
Arrived

Flight Plot

Page will automatically refresh every two minutes.


Map Options




Map Legend


Flown Route
Filed Route
Departure Airport
Arrival Airport
Navaid (VOR, NDB)
Fix

Horizontal Profiles

Position Reports

Time Latitude Longitude Heading Altitude Ground
Speed
22-May-20 18:05 34.262992 -116.858865 356 6755ft 0kts
22-May-20 18:06 34.262992 -116.858865 356 6755ft 0kts
22-May-20 18:07 34.262992 -116.858865 356 6755ft 0kts
22-May-20 18:08 34.262992 -116.858865 356 6755ft 0kts
22-May-20 18:09 34.262992 -116.858865 356 6755ft 0kts
22-May-20 18:10 34.262992 -116.858865 357 6755ft 0kts
22-May-20 18:11 34.262992 -116.858865 356 6755ft 0kts
22-May-20 18:12 34.262992 -116.858865 356 6755ft 0kts
22-May-20 18:13 34.262992 -116.858865 356 6755ft 0kts
22-May-20 18:14 34.262992 -116.858865 356 6755ft 0kts
22-May-20 18:15 34.263244 -116.857763 90 6755ft 10kts
22-May-20 18:16 34.263250 -116.852003 91 6755ft 22kts
22-May-20 18:17 34.263282 -116.846807 90 6755ft 0kts
22-May-20 18:18 34.263282 -116.846807 90 6755ft 0kts
22-May-20 18:19 34.263405 -116.846455 26 6755ft 8kts
22-May-20 18:20 34.263821 -116.847009 269 6755ft 0kts
22-May-20 18:21 34.263667 -116.876700 265 7430ft 133kts
22-May-20 18:22 34.264364 -116.921312 271 9369ft 133kts
22-May-20 18:23 34.266032 -116.969747 272 10349ft 176kts
22-May-20 18:24 34.279732 -117.034038 283 10318ft 208kts
22-May-20 18:25 34.294978 -117.102278 283 10329ft 210kts
22-May-20 18:26 34.318928 -117.155373 290 12441ft 170kts
22-May-20 18:27 34.337641 -117.208304 290 13862ft 173kts
22-May-20 18:28 34.356418 -117.262278 290 15184ft 176kts
22-May-20 18:29 34.375543 -117.317369 290 16420ft 179kts
22-May-20 18:30 34.394899 -117.373221 291 17557ft 182kts
22-May-20 18:31 34.414465 -117.429783 291 18620ft 184kts
22-May-20 18:32 34.434336 -117.487332 291 19575ft 186kts
22-May-20 18:33 34.454429 -117.545635 291 20447ft 188kts
22-May-20 18:34 34.474413 -117.603725 291 21337ft 186kts
22-May-20 18:35 34.494366 -117.661841 291 22084ft 188kts
22-May-20 18:36 34.514575 -117.720796 291 22828ft 191kts
22-May-20 18:37 34.535006 -117.780521 291 23518ft 193kts
22-May-20 18:38 34.555885 -117.841669 291 23933ft 206kts
22-May-20 18:39 34.579177 -117.909979 291 23922ft 231kts
22-May-20 18:40 34.604447 -117.984294 291 23915ft 245kts
22-May-20 18:41 34.631365 -118.062112 301 23902ft 255kts
22-May-20 18:42 34.681993 -118.124139 312 23918ft 261kts
22-May-20 18:43 34.733931 -118.186297 312 23916ft 264kts
22-May-20 18:44 34.786735 -118.249572 312 23912ft 272kts
22-May-20 18:45 34.841581 -118.315407 312 23914ft 280kts
22-May-20 18:46 34.897221 -118.382330 312 23935ft 283kts
22-May-20 18:47 34.953078 -118.449652 312 23966ft 282kts
22-May-20 18:48 35.008664 -118.516784 312 23982ft 280kts
22-May-20 18:49 35.063737 -118.583438 312 23982ft 278kts
22-May-20 18:50 35.118349 -118.649672 312 23967ft 277kts
22-May-20 18:51 35.173155 -118.716273 311 23929ft 279kts
22-May-20 18:52 35.228175 -118.783254 311 23871ft 278kts
22-May-20 18:53 35.282773 -118.849859 311 23854ft 276kts
22-May-20 18:54 35.337050 -118.916221 311 23854ft 275kts
22-May-20 18:55 35.391122 -118.982460 311 23853ft 275kts
22-May-20 18:56 35.445122 -119.048743 311 23853ft 275kts
22-May-20 18:57 35.508920 -119.094175 357 23894ft 298kts
22-May-20 18:58 35.592140 -119.084585 358 23853ft 301kts
22-May-20 18:59 35.675121 -119.074797 358 23852ft 299kts
22-May-20 19:00 35.757685 -119.065035 358 23863ft 298kts
22-May-20 19:01 35.839964 -119.055288 358 23877ft 297kts
22-May-20 19:02 35.922275 -119.045516 358 23879ft 297kts
22-May-20 19:03 36.004650 -119.035713 358 23880ft 297kts
22-May-20 19:04 36.086799 -119.025920 358 23879ft 297kts
22-May-20 19:05 36.169033 -119.016093 358 23882ft 298kts
22-May-20 19:06 36.251364 -119.006233 358 23881ft 298kts
22-May-20 19:07 36.333650 -118.996360 358 23882ft 298kts
22-May-20 19:08 36.416240 -118.986430 358 23888ft 298kts
22-May-20 19:09 36.498471 -118.976520 358 23895ft 297kts
22-May-20 19:10 36.580596 -118.966601 358 23888ft 297kts
22-May-20 19:11 36.663432 -118.956578 358 22431ft 300kts
22-May-20 19:12 36.745941 -118.946566 358 20939ft 298kts
22-May-20 19:13 36.828150 -118.936573 359 19439ft 295kts
22-May-20 19:14 36.909311 -118.926684 359 17941ft 292kts
22-May-20 19:15 36.988831 -118.916953 359 16885ft 273kts
22-May-20 19:16 37.056432 -118.897479 45 16889ft 263kts
22-May-20 19:18 37.103362 -118.819373 45 16831ft 293kts
22-May-20 19:19 37.153796 -118.736283 45 16831ft 305kts
22-May-20 19:20 37.205642 -118.650736 45 16846ft 310kts
22-May-20 19:21 37.257851 -118.564362 45 16815ft 313kts
22-May-20 19:22 37.310433 -118.477147 45 16803ft 313kts
22-May-20 19:23 37.363675 -118.390912 31 16772ft 305kts
22-May-20 19:24 37.434958 -118.397336 332 16011ft 257kts
22-May-20 19:25 37.498713 -118.431208 332 14522ft 243kts
22-May-20 19:26 37.559434 -118.463564 332 13029ft 232kts
22-May-20 19:27 37.617660 -118.494652 332 11535ft 224kts
22-May-20 19:28 37.629046 -118.560982 266 10557ft 202kts
22-May-20 19:29 37.621383 -118.629029 267 9746ft 191kts
22-May-20 19:30 37.614522 -118.693219 269 8775ft 185kts
22-May-20 19:31 37.616002 -118.749923 271 8236ft 135kts
22-May-20 19:32 37.613339 -118.796197 286 7915ft 131kts
22-May-20 19:33 37.622713 -118.833853 288 7093ft 63kts
22-May-20 19:34 37.624895 -118.841851 288 7115ft 6kts
22-May-20 19:35 37.626802 -118.842822 287 7116ft 11kts
22-May-20 19:35 37.627233 -118.845086 191 7124ft 0kts
22-May-20 19:37 37.627234 -118.845086 191 7124ft 0kts
22-May-20 19:37 37.627234 -118.845086 191 7124ft 0kts
22-May-20 19:38 37.627234 -118.845086 191 7124ft 0kts
22-May-20 19:39 37.627234 -118.845086 191 7124ft 0kts
22-May-20 19:40 37.627234 -118.845086 191 7124ft 0kts
22-May-20 19:41 37.627234 -118.845086 191 7124ft 0kts
22-May-20 19:42 37.627234 -118.845086 191 7124ft 0kts
22-May-20 19:43 37.627234 -118.845086 191 7124ft 0kts
22-May-20 19:44 37.627234 -118.845086 191 7124ft 0kts
22-May-20 19:45 37.627234 -118.845086 191 7124ft 0kts
22-May-20 19:46 37.627234 -118.845086 191 7124ft 0kts
22-May-20 19:47 37.627234 -118.845086 191 7124ft 0kts

Navigation Log

Ident Type
Flight plan parsing failed, navigation log unavailable